Kendallville, Iowa
Current Conditions -  °F | °C
As of 11:15 PM on Saturday 25 Oct 2014 (Local Time) from KFKA Reporting Station
Clear Clear  
Wind Chill:   Ceiling: Unl
Heat Index:   Visibility: 10mi
Dew Point: -1°   Wind: 10mph
Humidity: 62%   Direction: 300°WNW
Pressure: 30.05"   Gusts: NA
Location:  43.363°N, 92.1685°W
Report Text: KFKA 260415Z AUTO 30009KT 10SM CLR 06/M01 A3005 RMK AO2 T00561011
Loading
Personal Weather Stations






























Interactive Weather Map
Tropical Storm Tracking
New forecast layout! Learn more

10-Day Weather Forecast

Advertisements
Track Severe Weather on mobile